This is the latest recevied weather packets stored in our database for station/object W1CAT. If no packets are shown the sender has not sent any weather packets the latest 10 day(s).
| Time | Temp. | Humidity | Pressure | Rain* | Wind** | Luminosity | Snow |
|---|---|---|---|---|---|---|---|
| 1777939209 | 11.11° C | 48% | - | 0 mm | - | - | - |
| 1777938906 | 11.67° C | 48% | - | 0 mm | - | - | - |
| 1777938602 | 11.67° C | 48% | - | 0 mm | - | - | - |
| 1777938299 | 11.11° C | 48% | - | 0 mm | - | - | - |
| 1777937996 | 10.56° C | 52% | - | 0 mm | - | - | - |
| 1777937691 | 10° C | 57% | - | 0 mm | - | - | - |
| 1777937389 | 10° C | 59% | - | 0 mm | - | - | - |
| 1777937086 | 10° C | 60% | - | 0 mm | - | - | - |
| 1777936783 | 10° C | 60% | - | 0 mm | - | - | - |
| 1777936479 | 9.44° C | 63% | - | 0 mm | - | - | - |
| 1777936175 | 8.89° C | 64% | - | 0 mm | - | - | - |
| 1777935872 | 9.44° C | 63% | - | 0 mm | - | - | - |
| 1777935572 | 10.56° C | 61% | - | 0 mm | - | - | - |
| 1777935268 | 11.67° C | 49% | - | 0 mm | - | - | - |
| 1777934965 | 12.78° C | 44% | - | 0 mm | - | - | - |
| 1777934662 | 13.33° C | 42% | - | 0 mm | - | - | - |
| 1777934359 | 13.89° C | 41% | - | 0 mm | - | - | - |
| 1777934054 | 13.89° C | 43% | - | 0 mm | - | - | - |
| 1777933750 | 13.33° C | 47% | - | 0 mm | - | - | - |
| 1777933448 | 13.33° C | 47% | - | 0 mm | - | - | - |
| 1777933146 | 12.78° C | 47% | - | 0 mm | - | - | - |
| 1777932842 | 12.22° C | 50% | - | 0 mm | - | - | - |
| 1777932539 | 12.22° C | 50% | - | 0 mm | - | - | - |
| 1777932236 | 12.22° C | 51% | - | 0 mm | - | - | - |
| 1777931933 | 12.22° C | 50% | - | 0 mm | - | - | - |
* Rain latest hour (hover to see other rain measurements)
** Current wind speed in m/s (hover to see current wind gust speed)